CMA CGM Elbe — 9HA3731 — position and weather

sailwx.info

Track history (hours):
 
Tides and Currents Weather Stations Pressure Air Temp Water Temp Dewpoint Dewpoint Depression Visibility Wind Speed Wind Dir Waves Ship Positions

CMA CGM Elbe

Last reported at 2018-Jan-10 05:37 UTC. Time now 2018-Jan-21 16:36 UTC.
Position N 01°19' E 103°17'.
Warning: this ship's position is 11 days out of date.

Length 300 m; draft 12.8 m.

Type: Ship (hazmat cat A). MMSI: 229934000.

Date/timePositionNaut miles runAvg speedWind from/ knotsBaromVisibWave heightAir tempDewpointWater temp
2018-Jan-10 05:37N 01°19' E 103°17'222.1
2018-Jan-10 05:30N 01°18' E 103°19'1121.7
2018-Jan-10 05:01N 01°13' E 103°29'1019.0
2018-Jan-10 04:30N 01°12' E 103°38'510.5
2018-Jan-10 03:59N 01°15' E 103°43'4 8.2
2018-Jan-10 03:30N 01°15' E 103°47'1 2.2
2018-Jan-10 03:00N 01°16' E 103°47'0 0.1
2018-Jan-10 02:22N 01°16' E 103°47'0 0.0
2018-Jan-10 01:55N 01°16' E 103°47'0 0.0
2018-Jan-10 01:28N 01°16' E 103°47'0 0.0
2018-Jan-10 00:55N 01°16' E 103°47'0 0.0
2018-Jan-10 00:28N 01°16' E 103°47'0 0.0
2018-Jan-09 23:58N 01°16' E 103°47'0 0.0
2018-Jan-09 23:25N 01°16' E 103°47'0 0.0
2018-Jan-09 22:58N 01°16' E 103°47'0 0.0
2018-Jan-09 22:28N 01°16' E 103°47'0 0.0
2018-Jan-09 21:58N 01°16' E 103°47'0 0.0
2018-Jan-09 21:28N 01°16' E 103°47'0 0.0
2018-Jan-09 20:58N 01°16' E 103°47'0 0.0
2018-Jan-09 20:19N 01°16' E 103°47'0 0.0
2018-Jan-09 19:57N 01°16' E 103°47'0 0.0
2018-Jan-09 19:27N 01°16' E 103°47'0 0.0
2018-Jan-09 18:57N 01°16' E 103°47'0 0.0
2018-Jan-09 18:27N 01°16' E 103°47'0 0.0
2018-Jan-09 17:57N 01°16' E 103°47'0 0.0
2018-Jan-09 17:30N 01°16' E 103°47'0 0.0
2018-Jan-09 16:54N 01°16' E 103°47'0 0.0
2018-Jan-09 16:24N 01°16' E 103°47'0 0.0
2018-Jan-09 15:57N 01°16' E 103°47'0 0.0
2018-Jan-09 15:30N 01°16' E 103°47'0 0.0
2018-Jan-09 14:48N 01°16' E 103°47'0 0.0
2018-Jan-09 14:21N 01°16' E 103°47'0 0.0
2018-Jan-09 13:57N 01°16' E 103°47'0 0.0
2018-Jan-09 13:30N 01°16' E 103°47'0 0.0
2018-Jan-09 12:45N 01°16' E 103°47'0 0.0
2018-Jan-09 12:27N 01°16' E 103°47'0 0.0
2018-Jan-09 11:57N 01°16' E 103°47'0 0.0
2018-Jan-09 11:28N 01°16' E 103°47'0 0.0
2018-Jan-09 10:55N 01°16' E 103°47'0 0.0
2018-Jan-09 10:25N 01°16' E 103°47'0 0.0
2018-Jan-09 09:58N 01°16' E 103°47'0 0.0
2018-Jan-09 09:22N 01°16' E 103°47'0 0.0
2018-Jan-09 08:49N 01°16' E 103°47'0 0.0
2018-Jan-09 08:19N 01°16' E 103°47'0 0.0
2018-Jan-09 07:58N 01°16' E 103°47'0 0.0
2018-Jan-09 07:28N 01°16' E 103°47'0 0.0
2018-Jan-09 06:58N 01°16' E 103°47'0 0.0
2018-Jan-09 06:25N 01°16' E 103°47'0 0.0
2018-Jan-09 05:58N 01°16' E 103°47'0 0.0
2018-Jan-09 05:28N 01°16' E 103°47'0 0.0
2018-Jan-09 04:55N 01°16' E 103°47'0 0.0
2018-Jan-09 04:28N 01°16' E 103°47'0 0.0
2018-Jan-09 03:55N 01°16' E 103°47'0 0.0
2018-Jan-09 03:28N 01°16' E 103°47'0 0.0
2018-Jan-09 02:58N 01°16' E 103°47'1 1.7
2018-Jan-09 02:30N 01°15' E 103°47'1 1.9
2018-Jan-09 02:00N 01°14' E 103°47'1 1.9
2018-Jan-09 01:30N 01°13' E 103°48'5 9.4
2018-Jan-09 00:59N 01°13' E 103°53'4 8.8
2018-Jan-09 00:28N 01°15' E 103°57'4 8.4
2018-Jan-08 23:59N 01°16' E 104°01'5 8.7
2018-Jan-08 23:28N 01°16' E 104°05'4 3.5
2018-Jan-08 22:21N 01°16' E 104°09'  
2018-Jan-04 04:36N 22°19' E 114°07'1 0.1
2018-Jan-03 17:17N 22°19' E 114°07'0 0.0
2018-Jan-03 15:17N 22°19' E 114°07'  
2017-Dec-31 10:49N 34°16' E 129°49'819.5
2017-Dec-31 10:25N 34°21' E 129°56'819.4
2017-Dec-31 10:00N 34°27' E 130°03'1019.8
2017-Dec-31 09:30N 34°33' E 130°12'1019.8
2017-Dec-31 09:00N 34°40' E 130°22'1820.0
2017-Dec-31 08:04N 34°52' E 130°39'219.9
2017-Dec-31 07:58N 34°53' E 130°41'  
Track history (hours):
 
Tides and Currents Weather Stations Pressure Air Temp Water Temp Dewpoint Dewpoint Depression Visibility Wind Speed Wind Dir Waves Ship Positions

CMA CGM Elbe

Last reported at 2018-Jan-10 05:37 UTC. Time now 2018-Jan-21 16:36 UTC.
Position N 01°19' E 103°17'.
Warning: this ship's position is 11 days out of date.

Length 300 m; draft 12.8 m.

Type: Ship (hazmat cat A). MMSI: 229934000.

Date/timePositionNaut miles runAvg speedWind from/ knotsBaromVisibWave heightAir tempDewpointWater temp
2018-Jan-10 05:37N 01°19' E 103°17'222.1
2018-Jan-10 05:30N 01°18' E 103°19'1121.7
2018-Jan-10 05:01N 01°13' E 103°29'1019.0
2018-Jan-10 04:30N 01°12' E 103°38'510.5
2018-Jan-10 03:59N 01°15' E 103°43'4 8.2
2018-Jan-10 03:30N 01°15' E 103°47'1 2.2
2018-Jan-10 03:00N 01°16' E 103°47'0 0.1
2018-Jan-10 02:22N 01°16' E 103°47'0 0.0
2018-Jan-10 01:55N 01°16' E 103°47'0 0.0
2018-Jan-10 01:28N 01°16' E 103°47'0 0.0
2018-Jan-10 00:55N 01°16' E 103°47'0 0.0
2018-Jan-10 00:28N 01°16' E 103°47'0 0.0
2018-Jan-09 23:58N 01°16' E 103°47'0 0.0
2018-Jan-09 23:25N 01°16' E 103°47'0 0.0
2018-Jan-09 22:58N 01°16' E 103°47'0 0.0
2018-Jan-09 22:28N 01°16' E 103°47'0 0.0
2018-Jan-09 21:58N 01°16' E 103°47'0 0.0
2018-Jan-09 21:28N 01°16' E 103°47'0 0.0
2018-Jan-09 20:58N 01°16' E 103°47'0 0.0
2018-Jan-09 20:19N 01°16' E 103°47'0 0.0
2018-Jan-09 19:57N 01°16' E 103°47'0 0.0
2018-Jan-09 19:27N 01°16' E 103°47'0 0.0
2018-Jan-09 18:57N 01°16' E 103°47'0 0.0
2018-Jan-09 18:27N 01°16' E 103°47'0 0.0
2018-Jan-09 17:57N 01°16' E 103°47'0 0.0
2018-Jan-09 17:30N 01°16' E 103°47'0 0.0
2018-Jan-09 16:54N 01°16' E 103°47'0 0.0
2018-Jan-09 16:24N 01°16' E 103°47'0 0.0
2018-Jan-09 15:57N 01°16' E 103°47'0 0.0
2018-Jan-09 15:30N 01°16' E 103°47'0 0.0
2018-Jan-09 14:48N 01°16' E 103°47'0 0.0
2018-Jan-09 14:21N 01°16' E 103°47'0 0.0
2018-Jan-09 13:57N 01°16' E 103°47'0 0.0
2018-Jan-09 13:30N 01°16' E 103°47'0 0.0
2018-Jan-09 12:45N 01°16' E 103°47'0 0.0
2018-Jan-09 12:27N 01°16' E 103°47'0 0.0
2018-Jan-09 11:57N 01°16' E 103°47'0 0.0
2018-Jan-09 11:28N 01°16' E 103°47'0 0.0
2018-Jan-09 10:55N 01°16' E 103°47'0 0.0
2018-Jan-09 10:25N 01°16' E 103°47'0 0.0
2018-Jan-09 09:58N 01°16' E 103°47'0 0.0
2018-Jan-09 09:22N 01°16' E 103°47'0 0.0
2018-Jan-09 08:49N 01°16' E 103°47'0 0.0
2018-Jan-09 08:19N 01°16' E 103°47'0 0.0
2018-Jan-09 07:58N 01°16' E 103°47'0 0.0
2018-Jan-09 07:28N 01°16' E 103°47'0 0.0
2018-Jan-09 06:58N 01°16' E 103°47'0 0.0
2018-Jan-09 06:25N 01°16' E 103°47'0 0.0
2018-Jan-09 05:58N 01°16' E 103°47'0 0.0
2018-Jan-09 05:28N 01°16' E 103°47'0 0.0
2018-Jan-09 04:55N 01°16' E 103°47'0 0.0
2018-Jan-09 04:28N 01°16' E 103°47'0 0.0
2018-Jan-09 03:55N 01°16' E 103°47'0 0.0
2018-Jan-09 03:28N 01°16' E 103°47'0 0.0
2018-Jan-09 02:58N 01°16' E 103°47'1 1.7
2018-Jan-09 02:30N 01°15' E 103°47'1 1.9
2018-Jan-09 02:00N 01°14' E 103°47'1 1.9
2018-Jan-09 01:30N 01°13' E 103°48'5 9.4
2018-Jan-09 00:59N 01°13' E 103°53'4 8.8
2018-Jan-09 00:28N 01°15' E 103°57'4 8.4
2018-Jan-08 23:59N 01°16' E 104°01'5 8.7
2018-Jan-08 23:28N 01°16' E 104°05'4 3.5
2018-Jan-08 22:21N 01°16' E 104°09'  
2018-Jan-04 04:36N 22°19' E 114°07'1 0.1
2018-Jan-03 17:17N 22°19' E 114°07'0 0.0
2018-Jan-03 15:17N 22°19' E 114°07'  
2017-Dec-31 10:49N 34°16' E 129°49'819.5
2017-Dec-31 10:25N 34°21' E 129°56'819.4
2017-Dec-31 10:00N 34°27' E 130°03'1019.8
2017-Dec-31 09:30N 34°33' E 130°12'1019.8
2017-Dec-31 09:00N 34°40' E 130°22'1820.0
2017-Dec-31 08:04N 34°52' E 130°39'219.9
2017-Dec-31 07:58N 34°53' E 130°41'  

Dump ship's entire track history